Time;durP1;ratioP1;P1;durP2;ratioP2;P2;SDS_P1;SDS_P2;PMS_P1;PMS_P2;Temp;Humidity;BMP_temperature;BMP_pressure;BME280_temperature;BME280_humidity;BME280_pressure;Samples;Min_cycle;Max_cycle;Signal;HPM_P1;HPM_P2
2023/03/03 00:01:49;;;;;;;27.17;13.13;;;2.60;99.90;;;;;;5082888;28;20027;-68
2023/03/03 00:04:15;;;;;;;27.80;13.65;;;2.60;99.90;;;;;;5069517;28;20485;-69
2023/03/03 00:06:40;;;;;;;24.58;12.90;;;2.60;99.90;;;;;;5107876;28;20084;-68
2023/03/03 00:09:06;;;;;;;23.17;12.05;;;2.60;99.90;;;;;;5117524;27;20041;-68
2023/03/03 00:11:32;;;;;;;24.02;11.40;;;2.70;99.90;;;;;;5067130;28;20066;-69
2023/03/03 00:13:57;;;;;;;22.42;11.27;;;2.70;99.90;;;;;;5088992;28;20115;-68
2023/03/03 00:16:37;;;;;;;23.05;11.32;;;2.80;99.90;;;;;;5109477;27;20024;-68
2023/03/03 00:19:13;;;;;;;24.77;12.20;;;2.70;99.90;;;;;;5067787;28;20130;-69
2023/03/03 00:21:45;;;;;;;24.48;12.43;;;2.70;99.90;;;;;;5074341;28;20040;-68
2023/03/03 00:24:14;;;;;;;27.65;12.52;;;2.70;99.90;;;;;;5056787;28;20037;-68
2023/03/03 00:26:45;;;;;;;22.80;11.30;;;2.70;99.90;;;;;;5074294;28;20044;-68
2023/03/03 00:29:29;;;;;;;24.77;12.90;;;2.70;99.90;;;;;;5074138;28;20398;-68
2023/03/03 00:32:06;;;;;;;24.67;12.90;;;2.70;99.90;;;;;;5071212;28;20043;-68
2023/03/03 00:34:34;;;;;;;22.63;12.55;;;2.70;99.90;;;;;;5077249;28;20043;-69
2023/03/03 00:37:00;;;;;;;26.98;13.23;;;2.70;99.90;;;;;;5071497;28;20415;-68
2023/03/03 00:39:36;;;;;;;26.00;12.82;;;2.70;99.90;;;;;;5073904;28;20037;-69
2023/03/03 00:42:15;;;;;;;27.10;12.57;;;2.70;99.90;;;;;;5072303;28;20161;-69
2023/03/03 00:44:59;;;;;;;25.52;12.60;;;2.70;99.90;;;;;;5093943;28;20051;-68
2023/03/03 00:47:37;;;;;;;26.60;13.65;;;2.80;99.90;;;;;;5111168;28;20400;-69
2023/03/03 00:50:05;;;;;;;28.02;13.95;;;2.80;99.90;;;;;;5085540;28;20410;-68
2023/03/03 00:52:39;;;;;;;26.23;13.15;;;2.80;99.90;;;;;;5125883;27;20040;-69
2023/03/03 00:55:06;;;;;;;26.33;12.93;;;2.80;99.90;;;;;;5093944;28;20085;-68
2023/03/03 00:57:32;;;;;;;28.13;13.88;;;2.80;99.90;;;;;;5076698;28;20087;-68
2023/03/03 00:59:58;;;;;;;28.30;14.05;;;2.80;99.90;;;;;;5127738;27;20094;-68
2023/03/03 01:02:23;;;;;;;27.70;14.50;;;2.80;99.90;;;;;;5108513;28;20043;-69
2023/03/03 01:04:51;;;;;;;26.75;14.20;;;2.80;99.90;;;;;;5109439;28;20114;-68
2023/03/03 01:07:17;;;;;;;28.88;14.02;;;2.90;99.90;;;;;;5093486;28;20036;-68
2023/03/03 01:09:43;;;;;;;29.20;13.55;;;2.80;99.90;;;;;;5093403;28;20507;-69
2023/03/03 01:12:10;;;;;;;29.50;14.45;;;2.80;99.90;;;;;;5075800;28;20084;-69
2023/03/03 01:14:36;;;;;;;30.20;13.93;;;2.90;99.90;;;;;;5076448;28;20040;-69
2023/03/03 01:17:02;;;;;;;27.65;14.55;;;2.90;99.90;;;;;;5093455;28;20073;-69
2023/03/03 01:19:28;;;;;;;28.58;14.13;;;2.90;99.90;;;;;;5093318;28;20042;-69
2023/03/03 01:21:53;;;;;;;29.42;14.73;;;2.90;99.90;;;;;;5090250;28;20474;-68
2023/03/03 01:24:20;;;;;;;27.45;14.05;;;2.90;99.90;;;;;;5093136;28;20491;-68
2023/03/03 01:26:45;;;;;;;28.33;13.27;;;2.90;99.90;;;;;;5076587;28;20399;-69
2023/03/03 01:29:11;;;;;;;27.08;14.18;;;2.90;99.90;;;;;;5075015;28;20051;-68
2023/03/03 01:31:37;;;;;;;27.60;13.80;;;2.90;99.90;;;;;;5126169;27;20051;-68
2023/03/03 01:34:02;;;;;;;28.13;13.52;;;2.90;99.90;;;;;;5076009;28;20038;-68
2023/03/03 01:36:28;;;;;;;28.05;13.02;;;2.90;99.90;;;;;;5092896;28;20101;-68
2023/03/03 01:38:54;;;;;;;28.23;13.23;;;3.00;99.90;;;;;;5076234;28;20214;-69
2023/03/03 01:41:20;;;;;;;27.95;11.75;;;2.90;99.90;;;;;;5084960;28;20043;-68
2023/03/03 01:43:48;;;;;;;24.50;12.60;;;2.90;99.90;;;;;;5072563;28;20411;-68
2023/03/03 01:46:23;;;;;;;24.85;12.25;;;2.90;99.90;;;;;;5072496;28;20044;-68
2023/03/03 01:48:52;;;;;;;23.38;11.73;;;2.90;99.90;;;;;;5072438;28;20488;-68
2023/03/03 01:51:28;;;;;;;26.65;12.73;;;2.90;99.90;;;;;;5088564;28;20078;-68
2023/03/03 01:54:00;;;;;;;25.75;11.85;;;3.00;99.90;;;;;;5072083;28;20044;-69
2023/03/03 01:56:25;;;;;;;26.10;11.82;;;2.90;99.90;;;;;;5055535;28;20049;-69
2023/03/03 01:58:53;;;;;;;23.33;12.02;;;2.90;99.90;;;;;;5072372;28;20123;-69
2023/03/03 02:01:22;;;;;;;19.55;10.13;;;3.00;99.90;;;;;;5081530;28;20052;-69
2023/03/03 02:03:49;;;;;;;21.33;10.43;;;2.90;99.90;;;;;;5075157;28;20078;-68
2023/03/03 02:06:19;;;;;;;24.40;11.75;;;2.90;99.90;;;;;;5108746;27;20546;-69
2023/03/03 02:08:58;;;;;;;22.73;10.68;;;2.90;99.90;;;;;;5055751;28;20048;-69
2023/03/03 02:11:25;;;;;;;22.08;11.02;;;3.00;99.90;;;;;;5055402;28;20041;-69
2023/03/03 02:13:51;;;;;;;19.83;11.13;;;2.90;99.90;;;;;;5072139;28;20094;-69
2023/03/03 02:16:16;;;;;;;21.95;10.35;;;2.90;99.90;;;;;;5080415;28;20472;-69
2023/03/03 02:18:42;;;;;;;19.92;9.90;;;2.90;99.90;;;;;;5092582;28;20031;-69
2023/03/03 02:21:21;;;;;;;20.08;10.35;;;2.90;99.90;;;;;;5084185;28;20074;-69
2023/03/03 02:23:59;;;;;;;22.67;11.15;;;2.90;99.90;;;;;;5107439;28;20067;-68
2023/03/03 02:26:30;;;;;;;21.55;10.63;;;2.90;99.90;;;;;;5090241;28;20512;-69
2023/03/03 02:28:56;;;;;;;22.75;10.93;;;2.90;99.90;;;;;;5092402;28;20138;-69
2023/03/03 02:31:24;;;;;;;20.65;10.05;;;2.90;99.90;;;;;;5075292;28;20036;-68
2023/03/03 02:33:51;;;;;;;25.05;11.00;;;2.90;99.90;;;;;;5092721;28;20388;-69
2023/03/03 02:36:27;;;;;;;20.52;10.30;;;2.90;99.90;;;;;;5091221;28;20036;-69
2023/03/03 02:39:14;;;;;;;21.95;10.75;;;2.90;99.90;;;;;;5074362;28;20032;-69
2023/03/03 02:42:02;;;;;;;22.42;10.82;;;3.00;99.90;;;;;;5090905;28;20074;-69
2023/03/03 02:44:29;;;;;;;20.70;11.13;;;2.90;99.90;;;;;;5091944;28;20032;-68
2023/03/03 02:46:56;;;;;;;21.85;9.75;;;2.90;99.90;;;;;;5076551;28;20035;-69
2023/03/03 02:49:24;;;;;;;22.77;10.65;;;2.90;99.90;;;;;;5105348;28;20037;-69
2023/03/03 02:51:50;;;;;;;20.85;11.00;;;2.90;99.90;;;;;;5075922;28;20040;-69
2023/03/03 02:54:17;;;;;;;21.33;10.80;;;3.00;99.90;;;;;;5091904;28;20043;-69
2023/03/03 02:56:43;;;;;;;30.15;12.40;;;2.90;99.90;;;;;;5091713;28;20048;-69
2023/03/03 02:59:09;;;;;;;22.73;10.63;;;2.90;99.90;;;;;;5075116;28;20033;-69
2023/03/03 03:01:35;;;;;;;23.38;11.68;;;2.90;99.90;;;;;;5059630;28;20037;-69
2023/03/03 03:04:10;;;;;;;26.00;11.43;;;2.90;99.90;;;;;;5071643;28;20120;-69
2023/03/03 03:06:36;;;;;;;30.15;10.48;;;2.90;99.90;;;;;;5054477;28;20040;-69
2023/03/03 03:09:03;;;;;;;38.53;10.15;;;2.90;99.90;;;;;;5107781;28;20087;-69
2023/03/03 03:11:28;;;;;;;21.80;9.95;;;2.80;99.90;;;;;;5090626;28;20040;-69
2023/03/03 03:13:54;;;;;;;18.00;8.80;;;2.80;99.90;;;;;;5090823;28;20028;-69
2023/03/03 03:16:20;;;;;;;19.85;7.55;;;2.80;99.90;;;;;;5078909;28;20036;-69
2023/03/03 03:18:45;;;;;;;18.30;6.32;;;2.80;99.90;;;;;;5054760;28;20173;-68
2023/03/03 03:21:12;;;;;;;14.35;7.63;;;2.80;99.90;;;;;;5071091;28;20481;-69
2023/03/03 03:23:39;;;;;;;16.13;6.60;;;2.70;99.90;;;;;;5092202;28;20097;-69
2023/03/03 03:26:05;;;;;;;21.02;6.53;;;2.70;99.90;;;;;;5109516;28;20082;-68
2023/03/03 03:28:31;;;;;;;12.45;6.50;;;2.70;99.90;;;;;;5095756;28;20130;-69
2023/03/03 03:30:57;;;;;;;13.70;7.10;;;2.70;99.90;;;;;;5112062;28;20044;-69
2023/03/03 03:33:23;;;;;;;16.17;6.35;;;2.70;99.90;;;;;;5112689;28;20380;-69
2023/03/03 03:35:49;;;;;;;12.07;5.72;;;2.70;99.90;;;;;;5078299;28;20036;-68
2023/03/03 03:38:15;;;;;;;14.18;7.20;;;2.70;99.90;;;;;;5078439;28;20032;-69
2023/03/03 03:40:41;;;;;;;15.75;7.82;;;2.70;99.90;;;;;;5076492;28;20035;-68
2023/03/03 03:43:07;;;;;;;13.68;7.25;;;2.70;99.90;;;;;;5108939;27;20072;-69
2023/03/03 03:45:33;;;;;;;13.65;7.00;;;2.70;99.90;;;;;;5072846;28;20529;-68
2023/03/03 03:47:58;;;;;;;13.68;6.90;;;2.70;99.90;;;;;;5094451;28;20043;-69
2023/03/03 03:50:24;;;;;;;14.93;7.03;;;2.70;99.90;;;;;;5112254;28;20036;-68
2023/03/03 03:52:50;;;;;;;44.67;8.00;;;2.70;99.90;;;;;;5065161;28;20044;-68
2023/03/03 03:55:16;;;;;;;22.40;8.10;;;2.70;99.90;;;;;;5074762;28;20039;-69
2023/03/03 03:57:42;;;;;;;15.13;7.00;;;2.60;99.90;;;;;;5108371;28;20045;-69
2023/03/03 04:00:09;;;;;;;22.35;6.47;;;2.60;99.90;;;;;;5108435;28;20394;-69
2023/03/03 04:02:35;;;;;;;11.18;5.57;;;2.60;99.90;;;;;;5129075;27;20047;-69
2023/03/03 04:05:01;;;;;;;10.32;5.40;;;2.60;99.90;;;;;;5127867;27;20040;-68
2023/03/03 04:07:26;;;;;;;11.40;6.00;;;2.60;99.90;;;;;;5111600;28;20457;-69
2023/03/03 04:09:52;;;;;;;11.05;5.80;;;2.60;99.90;;;;;;5111786;28;20036;-68
2023/03/03 04:12:18;;;;;;;10.55;5.40;;;2.60;99.90;;;;;;5126881;27;20516;-69
2023/03/03 04:14:43;;;;;;;11.82;5.93;;;2.60;99.90;;;;;;5093593;28;20119;-68
2023/03/03 04:17:23;;;;;;;10.68;5.78;;;2.60;99.90;;;;;;5080782;28;20392;-68
2023/03/03 04:19:51;;;;;;;10.45;5.50;;;2.70;99.90;;;;;;5057622;28;20044;-69
2023/03/03 04:22:17;;;;;;;11.52;5.57;;;2.60;99.90;;;;;;5091381;28;20040;-68
2023/03/03 04:24:43;;;;;;;32.72;5.03;;;2.60;99.90;;;;;;5086651;28;20043;-68
2023/03/03 04:27:08;;;;;;;9.50;4.93;;;2.50;99.90;;;;;;5094225;28;20416;-69
2023/03/03 04:29:34;;;;;;;9.10;4.93;;;2.50;99.90;;;;;;5119956;27;20041;-69
2023/03/03 04:32:00;;;;;;;10.05;4.88;;;2.50;99.90;;;;;;5090945;28;20049;-68
2023/03/03 04:34:26;;;;;;;10.00;5.43;;;2.60;99.90;;;;;;5090817;28;20043;-69
2023/03/03 04:36:51;;;;;;;13.43;5.35;;;2.50;99.90;;;;;;5087136;28;20106;-68
2023/03/03 04:39:17;;;;;;;9.25;5.00;;;2.50;99.90;;;;;;5111185;28;20038;-68
2023/03/03 04:41:42;;;;;;;18.35;5.15;;;2.40;99.90;;;;;;5109018;28;20036;-69
2023/03/03 04:44:08;;;;;;;8.68;4.30;;;2.40;99.90;;;;;;5128414;27;20042;-68
2023/03/03 04:46:34;;;;;;;11.60;4.55;;;2.50;99.90;;;;;;5105807;28;20511;-68
2023/03/03 04:48:59;;;;;;;9.57;5.35;;;2.40;99.90;;;;;;5073689;28;20044;-68
2023/03/03 04:51:25;;;;;;;10.48;5.68;;;2.50;99.90;;;;;;5083391;28;20115;-69
2023/03/03 04:53:50;;;;;;;14.20;4.13;;;2.50;99.90;;;;;;5110716;28;20476;-69
2023/03/03 04:56:16;;;;;;;8.68;4.57;;;2.40;99.90;;;;;;5110715;28;20102;-68
2023/03/03 04:58:41;;;;;;;9.93;5.07;;;2.40;99.90;;;;;;5127964;27;20048;-69
2023/03/03 05:01:13;;;;;;;9.82;4.90;;;2.50;99.90;;;;;;5075948;28;20407;-69
2023/03/03 05:03:39;;;;;;;8.25;4.30;;;2.50;99.90;;;;;;5110945;28;20044;-68
2023/03/03 05:06:06;;;;;;;8.82;5.07;;;2.50;99.90;;;;;;5068515;28;20044;-69
2023/03/03 05:08:31;;;;;;;23.25;4.90;;;2.50;99.90;;;;;;5072966;28;20047;-69
2023/03/03 05:10:58;;;;;;;10.18;4.97;;;2.40;99.90;;;;;;5089496;28;20037;-68
2023/03/03 05:13:26;;;;;;;10.15;5.40;;;2.40;99.90;;;;;;5056794;28;20392;-69
2023/03/03 05:15:54;;;;;;;10.75;5.78;;;2.40;99.90;;;;;;5072790;28;20085;-68
2023/03/03 05:18:20;;;;;;;11.23;5.90;;;2.50;99.90;;;;;;5090293;28;20507;-68
2023/03/03 05:20:46;;;;;;;10.73;5.63;;;2.50;99.90;;;;;;5127612;27;20036;-68
2023/03/03 05:23:12;;;;;;;11.98;5.93;;;2.40;99.90;;;;;;5110288;28;20040;-69
2023/03/03 05:25:40;;;;;;;12.90;5.47;;;2.50;99.90;;;;;;5109693;28;20425;-68
2023/03/03 05:28:06;;;;;;;11.40;5.70;;;2.40;99.90;;;;;;5093363;28;20052;-69
2023/03/03 05:30:31;;;;;;;12.73;6.13;;;2.40;99.90;;;;;;5076092;28;20496;-68
2023/03/03 05:32:58;;;;;;;15.60;5.88;;;2.40;99.90;;;;;;5110057;28;20040;-69
2023/03/03 05:35:24;;;;;;;9.93;4.93;;;2.30;99.90;;;;;;5092383;28;20044;-68
2023/03/03 05:37:51;;;;;;;11.75;5.07;;;2.30;99.90;;;;;;5115819;27;20170;-69
2023/03/03 05:40:17;;;;;;;13.85;4.30;;;2.30;99.90;;;;;;5072692;28;20048;-68
2023/03/03 05:42:43;;;;;;;17.67;4.20;;;2.20;99.90;;;;;;5107666;28;20035;-68
2023/03/03 05:45:10;;;;;;;27.80;3.83;;;2.20;99.90;;;;;;5075600;28;20039;-68
2023/03/03 05:47:35;;;;;;;6.43;3.20;;;2.10;99.90;;;;;;5075269;28;20538;-69
2023/03/03 05:50:01;;;;;;;5.78;3.03;;;2.10;99.90;;;;;;5126667;27;20076;-68
2023/03/03 05:52:27;;;;;;;6.80;3.60;;;2.10;99.90;;;;;;5108955;28;20123;-68
2023/03/03 05:54:52;;;;;;;6.95;3.60;;;2.00;99.90;;;;;;5092838;28;20032;-68
2023/03/03 05:57:18;;;;;;;7.10;3.70;;;2.00;99.90;;;;;;5108305;28;20564;-68
2023/03/03 05:59:43;;;;;;;17.15;4.32;;;2.10;99.90;;;;;;5126734;27;20052;-69
2023/03/03 06:02:09;;;;;;;8.45;4.57;;;2.00;99.90;;;;;;5126083;27;20044;-68
2023/03/03 06:04:34;;;;;;;8.13;4.75;;;2.10;99.90;;;;;;5126829;27;20047;-68
2023/03/03 06:07:00;;;;;;;9.55;4.70;;;2.00;99.90;;;;;;5107997;28;20040;-68
2023/03/03 06:09:26;;;;;;;9.02;4.80;;;2.00;99.90;;;;;;5126984;27;20504;-68
2023/03/03 06:11:52;;;;;;;9.15;4.47;;;2.00;99.90;;;;;;5097351;28;20040;-68
2023/03/03 06:14:19;;;;;;;9.10;3.97;;;2.00;99.90;;;;;;5055247;28;20086;-69
2023/03/03 06:16:46;;;;;;;9.73;4.82;;;2.00;99.90;;;;;;5068622;28;20040;-68
2023/03/03 06:19:12;;;;;;;8.88;4.28;;;2.10;99.90;;;;;;5091294;28;20062;-69
2023/03/03 06:21:37;;;;;;;8.23;4.05;;;2.00;99.90;;;;;;5126366;27;20031;-69
2023/03/03 06:24:03;;;;;;;9.32;3.78;;;2.00;99.90;;;;;;5092156;28;20043;-69
2023/03/03 06:26:30;;;;;;;5.82;2.90;;;2.00;99.90;;;;;;5125408;27;20557;-69
2023/03/03 06:28:56;;;;;;;6.20;2.90;;;1.90;99.90;;;;;;5075229;28;20044;-69
2023/03/03 06:31:21;;;;;;;5.53;2.60;;;1.90;99.90;;;;;;5108477;28;20044;-69
2023/03/03 06:33:47;;;;;;;4.28;2.28;;;1.90;99.90;;;;;;5075558;28;20123;-70
2023/03/03 06:36:13;;;;;;;5.95;2.72;;;1.90;99.90;;;;;;5125198;27;20032;-70
2023/03/03 06:38:38;;;;;;;5.13;2.65;;;1.80;99.90;;;;;;5125919;28;20036;-70
2023/03/03 06:41:06;;;;;;;5.38;2.67;;;1.90;99.90;;;;;;5118869;28;20461;-70
2023/03/03 06:43:32;;;;;;;5.97;2.97;;;1.80;99.90;;;;;;5092040;28;20039;-70
2023/03/03 06:45:58;;;;;;;6.93;2.95;;;1.90;99.90;;;;;;5090995;28;20079;-70
2023/03/03 06:48:24;;;;;;;13.52;3.00;;;1.80;99.90;;;;;;5108870;28;20487;-70
2023/03/03 06:50:49;;;;;;;6.07;2.95;;;1.70;99.90;;;;;;5124908;28;20063;-70
2023/03/03 06:53:17;;;;;;;7.00;3.13;;;1.70;99.90;;;;;;5108850;28;20384;-70
2023/03/03 06:55:43;;;;;;;6.00;3.00;;;1.80;99.90;;;;;;5090804;28;20032;-70
2023/03/03 06:58:18;;;;;;;7.68;3.60;;;1.70;99.90;;;;;;5108797;28;20036;-70
2023/03/03 07:00:55;;;;;;;8.23;3.47;;;1.70;99.90;;;;;;5091452;28;20040;-70
2023/03/03 07:03:25;;;;;;;6.30;3.28;;;1.70;99.90;;;;;;5096218;28;20367;-70
2023/03/03 07:05:52;;;;;;;9.10;3.35;;;1.80;99.90;;;;;;5096302;28;20382;-70
2023/03/03 07:08:21;;;;;;;6.13;3.35;;;1.70;99.90;;;;;;5105989;28;20039;-70
2023/03/03 07:10:47;;;;;;;9.45;3.20;;;1.70;99.90;;;;;;5084160;28;20047;-70
2023/03/03 07:13:25;;;;;;;5.70;3.13;;;1.70;99.90;;;;;;5093068;28;20044;-70
2023/03/03 07:15:57;;;;;;;7.25;3.45;;;1.70;99.90;;;;;;5093455;28;20062;-70
2023/03/03 07:18:51;;;;;;;8.05;3.30;;;1.70;99.90;;;;;;5072798;28;20029;-70
2023/03/03 07:21:24;;;;;;;7.15;3.30;;;1.80;99.90;;;;;;5073370;28;20588;-69
2023/03/03 07:23:52;;;;;;;6.13;3.55;;;1.70;99.90;;;;;;5092335;28;20078;-70
2023/03/03 07:26:29;;;;;;;7.55;3.75;;;1.70;99.90;;;;;;5093552;28;20391;-70
2023/03/03 07:28:57;;;;;;;7.88;3.53;;;1.70;99.90;;;;;;5109691;27;20483;-70
2023/03/03 07:31:34;;;;;;;8.38;3.90;;;1.70;99.90;;;;;;5086543;28;20277;-70
2023/03/03 07:34:00;;;;;;;9.18;3.67;;;1.70;99.90;;;;;;5078891;28;20431;-70
2023/03/03 07:36:35;;;;;;;8.27;3.53;;;1.70;99.90;;;;;;5128476;27;20506;-70
2023/03/03 07:39:17;;;;;;;7.45;3.88;;;1.80;99.90;;;;;;5076011;28;20066;-70
2023/03/03 07:41:43;;;;;;;7.15;3.70;;;1.90;99.90;;;;;;5094167;28;20040;-70
2023/03/03 07:44:27;;;;;;;7.15;4.15;;;1.90;99.90;;;;;;5078556;28;20472;-70
2023/03/03 07:46:52;;;;;;;7.28;4.00;;;1.90;99.90;;;;;;5129129;27;20115;-70
2023/03/03 07:49:45;;;;;;;8.10;3.97;;;1.90;99.90;;;;;;5094144;28;20127;-70
2023/03/03 07:52:39;;;;;;;6.47;3.42;;;1.90;99.90;;;;;;5091622;28;20500;-70
2023/03/03 07:55:27;;;;;;;7.40;3.83;;;2.00;99.90;;;;;;5063311;28;20127;-70
2023/03/03 07:57:56;;;;;;;7.07;3.58;;;2.00;99.90;;;;;;5094343;28;20455;-70
2023/03/03 08:00:27;;;;;;;7.75;4.18;;;2.00;99.90;;;;;;5094377;28;20044;-70
2023/03/03 08:03:03;;;;;;;7.20;3.85;;;2.10;99.90;;;;;;5078306;28;20373;-70
2023/03/03 08:05:36;;;;;;;9.85;3.78;;;2.10;99.90;;;;;;5093614;28;20042;-70
2023/03/03 08:08:16;;;;;;;5.82;2.92;;;2.10;99.90;;;;;;5077744;28;20109;-70
2023/03/03 08:10:56;;;;;;;8.48;3.45;;;2.20;99.90;;;;;;5091825;28;20073;-70
2023/03/03 08:13:28;;;;;;;6.50;3.22;;;2.20;99.90;;;;;;5077689;28;20040;-70
2023/03/03 08:16:16;;;;;;;6.10;3.27;;;2.30;99.90;;;;;;5092503;28;20547;-70
2023/03/03 08:18:46;;;;;;;7.68;3.47;;;2.30;99.90;;;;;;5094452;28;20270;-68
2023/03/03 08:21:12;;;;;;;7.50;3.70;;;2.40;99.90;;;;;;5076808;28;20036;-67
2023/03/03 08:23:37;;;;;;;6.60;3.50;;;2.50;99.90;;;;;;5094534;28;20035;-68
2023/03/03 08:26:03;;;;;;;6.90;3.20;;;2.50;99.90;;;;;;5076900;28;20123;-68
2023/03/03 08:28:29;;;;;;;6.35;3.10;;;2.60;99.90;;;;;;5077465;28;20079;-67
2023/03/03 08:30:54;;;;;;;5.38;3.13;;;2.70;99.90;;;;;;5091786;28;20032;-67
2023/03/03 08:33:20;;;;;;;7.32;3.00;;;2.70;99.90;;;;;;5077417;28;20032;-68
2023/03/03 08:35:47;;;;;;;9.98;3.13;;;2.80;99.90;;;;;;5093360;28;20036;-67
2023/03/03 08:38:14;;;;;;;7.15;3.63;;;2.80;99.90;;;;;;5094211;28;20089;-68
2023/03/03 08:40:41;;;;;;;5.68;3.10;;;2.80;99.90;;;;;;5076466;28;20395;-68
2023/03/03 08:43:07;;;;;;;5.68;2.55;;;2.90;99.90;;;;;;5094151;28;20036;-68
2023/03/03 08:45:34;;;;;;;5.55;2.95;;;2.90;99.90;;;;;;5092737;28;20036;-68
2023/03/03 08:48:00;;;;;;;6.32;3.17;;;3.00;99.90;;;;;;5077431;28;20383;-68
2023/03/03 08:50:26;;;;;;;5.57;2.83;;;3.10;99.90;;;;;;5092671;28;20123;-68
2023/03/03 08:52:52;;;;;;;5.15;3.05;;;3.00;99.90;;;;;;5093946;28;20038;-68
2023/03/03 08:55:17;;;;;;;6.22;3.28;;;2.90;99.90;;;;;;5092979;28;20527;-68
2023/03/03 08:57:43;;;;;;;6.15;3.53;;;2.80;99.90;;;;;;5093741;28;20401;-68
2023/03/03 09:00:12;;;;;;;6.22;3.20;;;2.80;99.90;;;;;;5076109;28;20040;-69
2023/03/03 09:02:38;;;;;;;6.68;3.35;;;2.90;99.90;;;;;;5093627;28;20507;-69
2023/03/03 09:05:04;;;;;;;7.00;3.90;;;2.80;99.90;;;;;;5091424;28;20040;-69
2023/03/03 09:07:30;;;;;;;6.50;3.63;;;2.80;99.90;;;;;;5093745;28;20044;-69
2023/03/03 09:09:55;;;;;;;7.32;3.70;;;2.80;99.90;;;;;;5093630;28;20066;-69
2023/03/03 09:12:29;;;;;;;7.93;3.70;;;2.80;99.90;;;;;;5090536;28;20123;-69
2023/03/03 09:14:59;;;;;;;8.20;4.57;;;2.90;99.90;;;;;;5088503;28;20524;-69
2023/03/03 09:17:30;;;;;;;8.18;3.83;;;3.00;99.90;;;;;;5100267;28;20041;-69
2023/03/03 09:20:01;;;;;;;7.72;4.10;;;3.20;99.90;;;;;;5114052;27;20052;-69
2023/03/03 09:22:27;;;;;;;9.70;4.63;;;3.30;99.90;;;;;;5074033;28;20039;-70
2023/03/03 09:24:57;;;;;;;7.63;3.97;;;3.40;99.90;;;;;;5092045;28;20039;-69
2023/03/03 09:27:28;;;;;;;7.72;4.13;;;3.50;99.90;;;;;;5076499;28;20118;-69
2023/03/03 09:29:56;;;;;;;8.70;4.13;;;3.70;99.90;;;;;;5091925;28;20104;-70
2023/03/03 09:32:38;;;;;;;8.50;4.47;;;3.80;99.90;;;;;;5091137;28;20392;-69
2023/03/03 09:35:25;;;;;;;6.82;3.92;;;3.80;99.90;;;;;;5074231;28;20032;-70
2023/03/03 09:37:51;;;;;;;7.18;3.90;;;4.00;99.90;;;;;;5091956;28;20131;-70
2023/03/03 09:41:08;;;;;;;8.98;4.70;;;4.10;99.90;;;;;;5108649;28;20123;-70
2023/03/03 09:43:42;;;;;;;7.03;3.88;;;4.10;99.90;;;;;;5002511;28;20506;-70
2023/03/03 09:46:40;;;;;;;8.18;3.72;;;4.20;99.90;;;;;;5074337;28;20063;-70
2023/03/03 09:49:13;;;;;;;7.22;3.75;;;4.20;99.90;;;;;;5080858;28;20048;-70
2023/03/03 09:51:50;;;;;;;7.60;3.92;;;4.30;99.90;;;;;;5125036;27;20048;-70
2023/03/03 09:54:45;;;;;;;7.30;4.00;;;4.30;99.90;;;;;;5112520;27;20400;-70
2023/03/03 09:57:20;;;;;;;7.00;4.00;;;4.40;99.90;;;;;;5126656;27;20063;-70
2023/03/03 10:00:00;;;;;;;6.13;3.75;;;4.50;99.90;;;;;;5092889;28;20108;-70
2023/03/03 10:02:55;;;;;;;7.38;4.10;;;4.40;99.90;;;;;;5125569;27;20036;-71
2023/03/03 10:05:26;;;;;;;7.78;4.10;;;4.40;99.90;;;;;;5055417;28;20044;-70
2023/03/03 10:08:10;;;;;;;8.13;4.28;;;4.40;99.90;;;;;;5090752;28;20047;-70
2023/03/03 10:10:47;;;;;;;7.70;4.10;;;4.60;99.90;;;;;;5080396;28;20067;-70
2023/03/03 10:13:21;;;;;;;9.27;5.18;;;4.60;99.90;;;;;;5092754;28;20462;-70
2023/03/03 10:16:05;;;;;;;7.93;4.68;;;4.60;99.90;;;;;;5111479;27;20028;-70
2023/03/03 10:18:32;;;;;;;7.57;4.22;;;4.60;99.90;;;;;;5100552;28;20043;-70
2023/03/03 10:21:08;;;;;;;8.23;4.22;;;4.80;99.90;;;;;;5091451;28;20492;-70
2023/03/03 10:23:54;;;;;;;7.93;4.28;;;4.90;99.90;;;;;;5075473;28;20036;-70
2023/03/03 10:26:26;;;;;;;7.38;3.78;;;4.90;99.90;;;;;;5078034;28;20036;-70
2023/03/03 10:29:05;;;;;;;8.32;4.10;;;5.00;99.90;;;;;;5083807;28;20063;-70
2023/03/03 10:32:02;;;;;;;7.90;3.90;;;5.10;99.90;;;;;;5088940;28;20036;-71
2023/03/03 10:34:46;;;;;;;7.90;4.20;;;5.20;99.90;;;;;;5118098;27;20039;-70
2023/03/03 10:37:53;;;;;;;7.18;3.80;;;5.20;99.90;;;;;;5070432;28;20044;-70
2023/03/03 10:40:37;;;;;;;7.85;3.90;;;5.20;99.90;;;;;;5059725;28;20085;-70
2023/03/03 10:43:11;;;;;;;9.70;4.15;;;5.30;99.90;;;;;;5066499;28;20119;-71
2023/03/03 10:45:55;;;;;;;8.20;4.15;;;5.30;99.90;;;;;;5090655;28;20502;-70
2023/03/03 10:48:32;;;;;;;10.25;4.20;;;5.40;99.90;;;;;;5087654;28;20101;-71
2023/03/03 10:51:22;;;;;;;8.80;4.40;;;5.40;99.90;;;;;;5084896;28;20051;-70
2023/03/03 10:54:06;;;;;;;8.95;4.05;;;5.50;99.90;;;;;;5077700;28;20373;-70
2023/03/03 10:57:00;;;;;;;8.80;4.63;;;5.60;99.90;;;;;;5069274;28;20068;-71
2023/03/03 10:59:58;;;;;;;8.60;4.47;;;5.60;99.90;;;;;;5100281;28;20036;-70
2023/03/03 11:03:05;;;;;;;7.85;4.03;;;5.70;99.90;;;;;;5039211;28;20052;-70
2023/03/03 11:05:53;;;;;;;10.88;4.57;;;5.80;99.90;;;;;;5076361;28;20451;-71
2023/03/03 11:08:37;;;;;;;8.52;4.00;;;5.90;99.90;;;;;;5087792;28;20054;-70
2023/03/03 11:11:39;;;;;;;8.65;3.40;;;5.90;99.90;;;;;;5089709;28;20155;-70
2023/03/03 11:14:28;;;;;;;5.88;3.05;;;6.00;99.90;;;;;;5089810;28;20077;-71
2023/03/03 11:17:19;;;;;;;8.20;3.65;;;6.00;99.90;;;;;;5100999;28;20538;-71
2023/03/03 11:20:03;;;;;;;6.93;3.33;;;6.00;99.90;;;;;;5072196;28;20043;-70
2023/03/03 11:22:40;;;;;;;6.32;3.20;;;6.10;99.90;;;;;;5079657;28;20036;-70
2023/03/03 11:25:24;;;;;;;5.65;2.65;;;6.10;99.90;;;;;;5081545;28;20119;-71
2023/03/03 11:28:12;;;;;;;7.03;2.72;;;6.20;99.90;;;;;;5121102;27;20059;-70
2023/03/03 11:31:04;;;;;;;8.48;2.83;;;6.40;99.90;;;;;;5084784;28;20500;-70
2023/03/03 11:33:44;;;;;;;5.68;2.70;;;6.30;99.90;;;;;;5072041;28;20040;-71
2023/03/03 11:36:19;;;;;;;6.93;2.75;;;6.40;99.90;;;;;;5065715;28;20032;-71
2023/03/03 11:38:55;;;;;;;6.53;2.80;;;6.40;99.90;;;;;;5073663;28;20032;-71
2023/03/03 11:41:36;;;;;;;6.80;2.58;;;6.40;99.90;;;;;;5071317;28;20044;-70
2023/03/03 11:44:28;;;;;;;7.20;2.80;;;6.50;99.90;;;;;;5083952;28;20040;-71
2023/03/03 11:47:17;;;;;;;5.80;2.47;;;6.60;99.90;;;;;;5058229;28;20043;-71
2023/03/03 11:49:49;;;;;;;7.50;3.22;;;6.60;99.90;;;;;;5094661;28;20071;-70
2023/03/03 11:52:21;;;;;;;5.45;2.35;;;6.60;99.90;;;;;;5128523;27;20047;-71
2023/03/03 11:55:11;;;;;;;5.25;2.38;;;6.80;99.90;;;;;;5078273;28;20068;-71
2023/03/03 11:58:01;;;;;;;9.15;2.15;;;6.90;99.90;;;;;;5093689;28;20044;-70
2023/03/03 12:00:32;;;;;;;6.18;2.03;;;7.00;99.90;;;;;;5067143;28;20452;-71
2023/03/03 12:02:58;;;;;;;4.43;1.40;;;7.00;99.90;;;;;;5094153;28;20043;-71
2023/03/03 12:05:41;;;;;;;3.80;1.50;;;7.00;99.90;;;;;;5073859;28;20044;-71
2023/03/03 12:08:32;;;;;;;4.53;1.40;;;6.90;99.90;;;;;;5066488;28;20044;-71
2023/03/03 12:11:25;;;;;;;5.25;1.65;;;6.90;99.90;;;;;;5094768;28;20373;-71
2023/03/03 12:13:53;;;;;;;;;;;6.90;99.90;;;;;;5071323;28;20032;-69
2023/03/03 12:16:53;;;;;;;5.00;1.45;;;6.90;99.90;;;;;;5077356;28;19923;-68
2023/03/03 12:19:30;;;;;;;3.25;1.30;;;6.80;99.90;;;;;;5075185;28;20047;-68
2023/03/03 12:22:15;;;;;;;3.65;1.10;;;6.80;99.90;;;;;;5077386;28;20081;-68
2023/03/03 12:25:20;;;;;;;3.60;1.10;;;6.90;99.90;;;;;;5094480;28;20111;-69
2023/03/03 12:28:07;;;;;;;3.97;1.40;;;6.80;99.90;;;;;;5076741;28;20040;-69
2023/03/03 12:30:57;;;;;;;2.80;0.80;;;6.80;99.90;;;;;;5092050;28;20115;-69
2023/03/03 12:33:59;;;;;;;3.30;0.95;;;6.80;99.90;;;;;;5128495;27;20040;-68
2023/03/03 12:36:45;;;;;;;6.00;1.23;;;6.90;99.90;;;;;;5068170;28;20407;-69
2023/03/03 12:39:48;;;;;;;3.83;0.98;;;6.90;99.90;;;;;;5072406;28;20040;-68
2023/03/03 12:42:24;;;;;;;3.80;1.02;;;7.00;99.90;;;;;;5073786;28;20550;-69
2023/03/03 12:45:04;;;;;;;3.28;1.33;;;7.00;99.90;;;;;;5057260;28;20047;-69
2023/03/03 12:47:46;;;;;;;2.83;1.00;;;7.10;99.90;;;;;;5057171;28;20089;-68
2023/03/03 12:50:20;;;;;;;2.08;0.80;;;7.20;99.90;;;;;;5073727;28;20044;-69
2023/03/03 12:53:06;;;;;;;4.72;1.10;;;7.30;99.90;;;;;;5073896;28;20036;-69
2023/03/03 12:55:51;;;;;;;3.30;1.15;;;7.50;99.90;;;;;;5081823;28;20115;-69
2023/03/03 12:58:32;;;;;;;3.97;0.93;;;7.60;99.90;;;;;;5075825;28;20036;-69
2023/03/03 13:01:14;;;;;;;3.47;0.82;;;7.70;99.90;;;;;;5076927;28;20044;-68
2023/03/03 13:04:00;;;;;;;7.57;1.75;;;7.60;99.90;;;;;;5076934;28;20105;-68
2023/03/03 13:06:38;;;;;;;3.70;0.95;;;7.50;99.90;;;;;;5075592;28;20400;-69
2023/03/03 13:09:12;;;;;;;9.80;1.38;;;7.40;99.90;;;;;;5075485;28;20047;-68
2023/03/03 13:12:08;;;;;;;6.95;0.93;;;7.40;99.90;;;;;;5073844;28;20040;-68
2023/03/03 13:14:52;;;;;;;4.38;0.88;;;7.40;99.90;;;;;;5093462;28;20496;-69
2023/03/03 13:17:33;;;;;;;4.60;1.15;;;7.40;99.90;;;;;;5076783;28;20039;-69
2023/03/03 13:20:01;;;;;;;5.05;1.00;;;7.40;99.90;;;;;;5076818;28;20051;-69